createdAt,value
2023-02-12T00:00:09.916Z,19.41
2023-02-12T00:02:42.739Z,20.36
2023-02-12T00:05:09.526Z,19.19
2023-02-12T00:07:36.221Z,18.99
2023-02-12T00:10:03.930Z,19.79
2023-02-12T00:12:30.924Z,21.83
2023-02-12T00:14:57.785Z,21.30
2023-02-12T00:17:24.487Z,24.44
2023-02-12T00:19:51.354Z,20.72
2023-02-12T00:22:18.007Z,20.67
2023-02-12T00:24:44.747Z,22.05
2023-02-12T00:27:11.793Z,20.24
2023-02-12T00:29:38.685Z,19.94
2023-02-12T00:32:05.786Z,21.19
2023-02-12T00:34:32.594Z,20.06
2023-02-12T00:36:59.433Z,19.88
2023-02-12T00:39:27.307Z,19.89
2023-02-12T00:41:55.962Z,19.78
2023-02-12T00:44:22.735Z,21.06
2023-02-12T00:46:50.242Z,20.57
2023-02-12T00:49:19.222Z,19.04
2023-02-12T00:51:46.277Z,19.95
2023-02-12T00:54:13.079Z,21.89
2023-02-12T00:56:39.905Z,23.42
2023-02-12T00:59:06.691Z,23.90
2023-02-12T01:01:36.035Z,24.51
2023-02-12T01:04:04.254Z,21.02
2023-02-12T01:06:31.212Z,21.69
2023-02-12T01:08:58.549Z,21.60
2023-02-12T01:11:25.309Z,21.29
2023-02-12T01:13:52.383Z,21.66
2023-02-12T01:16:24.552Z,18.97
2023-02-12T01:18:55.856Z,22.88
2023-02-12T01:21:29.188Z,22.78
2023-02-12T01:23:56.889Z,25.35
2023-02-12T01:26:24.754Z,23.57
2023-02-12T01:28:53.909Z,20.41
2023-02-12T01:31:25.120Z,20.88
2023-02-12T01:33:54.486Z,22.63
2023-02-12T01:36:22.450Z,23.57
2023-02-12T01:38:49.837Z,20.75
2023-02-12T01:41:25.726Z,19.64
2023-02-12T01:44:24.291Z,21.00
2023-02-12T01:46:57.068Z,22.40
2023-02-12T01:49:29.547Z,19.86
2023-02-12T01:52:05.806Z,20.03
2023-02-12T01:54:35.710Z,20.34
2023-02-12T01:57:04.534Z,20.16
2023-02-12T01:59:32.852Z,21.17
2023-02-12T02:02:00.009Z,20.42
2023-02-12T02:04:36.106Z,21.20
2023-02-12T02:07:05.919Z,20.23
2023-02-12T02:09:36.267Z,20.73
2023-02-12T02:12:22.646Z,22.01
2023-02-12T02:14:52.688Z,21.48
2023-02-12T02:17:24.122Z,19.78
2023-02-12T02:20:32.256Z,20.89
2023-02-12T02:23:04.989Z,21.50
2023-02-12T02:25:50.070Z,21.04
2023-02-12T02:28:22.557Z,21.34
2023-02-12T02:30:55.391Z,19.71
2023-02-12T02:33:58.101Z,19.90
2023-02-12T02:36:32.264Z,19.21
2023-02-12T02:39:19.331Z,19.61
2023-02-12T02:42:01.768Z,18.82
2023-02-12T02:45:02.533Z,22.05
2023-02-12T02:47:35.321Z,25.23
2023-02-12T02:50:10.938Z,22.93
2023-02-12T02:52:43.493Z,20.65
2023-02-12T02:55:14.170Z,20.79
2023-02-12T02:57:59.046Z,20.66
2023-02-12T03:00:37.480Z,21.72
2023-02-12T03:03:20.898Z,25.57
2023-02-12T03:05:51.811Z,24.80
2023-02-12T03:08:25.251Z,23.41
2023-02-12T03:10:57.759Z,19.99
2023-02-12T03:13:36.667Z,24.29
2023-02-12T03:16:12.220Z,23.64
2023-02-12T03:18:46.996Z,24.79
2023-02-12T03:21:18.832Z,25.02
2023-02-12T03:23:59.413Z,25.11
2023-02-12T03:26:41.326Z,25.10
2023-02-12T03:29:08.304Z,25.85
2023-02-12T03:31:44.985Z,23.48
2023-02-12T03:34:39.677Z,23.82
2023-02-12T03:37:17.967Z,22.63
2023-02-12T03:39:54.833Z,22.69
2023-02-12T03:42:32.644Z,21.40
2023-02-12T03:45:08.352Z,20.94
2023-02-12T03:48:10.570Z,22.92
2023-02-12T03:50:41.917Z,21.74
2023-02-12T03:53:08.777Z,23.95
2023-02-12T03:55:41.298Z,24.96
2023-02-12T03:58:11.108Z,24.93
2023-02-12T04:00:39.458Z,25.84
2023-02-12T04:03:07.204Z,24.50
2023-02-12T04:05:34.260Z,21.68
2023-02-12T04:08:04.359Z,22.01
2023-02-12T04:10:58.952Z,22.34
2023-02-12T04:13:34.285Z,23.03
2023-02-12T04:16:25.587Z,20.09
2023-02-12T04:18:54.117Z,19.99
2023-02-12T04:21:42.569Z,20.37
2023-02-12T04:24:24.655Z,21.94
2023-02-12T04:27:20.525Z,24.62
2023-02-12T04:29:53.655Z,22.03
2023-02-12T04:32:40.552Z,21.15
2023-02-12T04:35:13.184Z,20.75
2023-02-12T04:37:48.597Z,20.74
2023-02-12T04:40:18.732Z,20.12
2023-02-12T04:42:51.348Z,20.09
2023-02-12T04:45:24.791Z,20.17
2023-02-12T04:47:52.452Z,20.99
2023-02-12T04:50:20.149Z,21.75
2023-02-12T04:52:47.172Z,23.10
2023-02-12T04:55:14.937Z,23.98
2023-02-12T04:57:41.672Z,20.60
2023-02-12T05:00:11.862Z,20.46
2023-02-12T05:02:38.899Z,21.93
2023-02-12T05:05:06.214Z,22.56
2023-02-12T05:07:33.020Z,21.02
2023-02-12T05:10:00.430Z,20.67
2023-02-12T05:12:27.134Z,20.35
2023-02-12T05:14:53.847Z,19.50
2023-02-12T05:17:23.635Z,19.93
2023-02-12T05:19:50.556Z,20.30
2023-02-12T05:22:17.993Z,21.46
2023-02-12T05:24:45.573Z,21.20
2023-02-12T05:27:12.385Z,23.46
2023-02-12T05:29:39.124Z,23.34
2023-02-12T05:32:07.079Z,20.21
2023-02-12T05:34:35.158Z,21.08
2023-02-12T05:37:02.036Z,21.59
2023-02-12T05:39:28.799Z,21.37
2023-02-12T05:41:55.631Z,20.55
2023-02-12T05:44:22.429Z,21.64
2023-02-12T05:46:49.309Z,21.46
2023-02-12T05:49:16.099Z,20.27
2023-02-12T05:51:43.032Z,20.07
2023-02-12T05:54:10.350Z,19.66
2023-02-12T05:56:43.907Z,20.08
2023-02-12T05:59:17.568Z,20.28
2023-02-12T06:01:45.937Z,20.86
2023-02-12T06:04:19.261Z,20.20
2023-02-12T06:06:46.860Z,19.89
2023-02-12T06:09:14.533Z,21.22
2023-02-12T06:11:42.235Z,20.37
2023-02-12T06:14:12.691Z,20.25
2023-02-12T06:16:39.643Z,19.17
2023-02-12T06:19:07.229Z,20.02
2023-02-12T06:21:34.500Z,20.09
2023-02-12T06:24:01.362Z,19.11
2023-02-12T06:26:28.245Z,20.40
2023-02-12T06:28:55.206Z,20.08
2023-02-12T06:31:32.271Z,25.44
2023-02-12T06:34:02.628Z,23.42
2023-02-12T06:36:30.272Z,20.91
2023-02-12T06:38:57.287Z,21.79
2023-02-12T06:41:24.451Z,24.32
2023-02-12T06:43:51.412Z,24.37
2023-02-12T06:46:18.224Z,24.69
2023-02-12T06:48:45.348Z,22.93
2023-02-12T06:51:18.293Z,23.80
2023-02-12T06:53:45.590Z,22.73
2023-02-12T06:56:13.438Z,20.75
2023-02-12T06:58:42.562Z,20.56
2023-02-12T07:01:18.130Z,21.70
2023-02-12T07:03:48.878Z,21.56
2023-02-12T07:06:16.090Z,20.02
2023-02-12T07:08:43.026Z,20.62
2023-02-12T07:11:09.729Z,20.78
2023-02-12T07:13:36.666Z,21.24
2023-02-12T07:16:09.165Z,21.11
2023-02-12T07:18:36.915Z,21.21
2023-02-12T07:21:05.192Z,21.03
2023-02-12T07:23:32.903Z,19.26
2023-02-12T07:26:02.460Z,19.21
2023-02-12T07:28:29.706Z,19.25
2023-02-12T07:30:56.457Z,19.29
2023-02-12T07:33:23.186Z,20.35
2023-02-12T07:35:50.072Z,20.87
2023-02-12T07:38:16.891Z,19.69
2023-02-12T07:40:43.619Z,19.48
2023-02-12T07:43:10.365Z,21.02
2023-02-12T07:45:39.419Z,21.69
2023-02-12T07:48:06.416Z,21.59
2023-02-12T07:50:33.273Z,21.53
2023-02-12T07:52:59.989Z,21.91
2023-02-12T07:55:26.697Z,18.34
2023-02-12T07:57:53.446Z,18.80
2023-02-12T08:00:20.513Z,20.23
2023-02-12T08:02:54.547Z,19.89
2023-02-12T08:05:21.796Z,19.05
2023-02-12T08:07:48.598Z,17.85
2023-02-12T08:10:15.413Z,17.94
2023-02-12T08:12:42.187Z,16.35
2023-02-12T08:15:09.656Z,17.53
2023-02-12T08:17:36.820Z,18.00
2023-02-12T08:20:03.730Z,18.03
2023-02-12T08:22:30.442Z,18.06
2023-02-12T08:24:57.148Z,17.77
2023-02-12T08:27:23.836Z,17.37
2023-02-12T08:29:50.783Z,18.45
2023-02-12T08:32:18.539Z,17.63
2023-02-12T08:34:45.428Z,17.40
2023-02-12T08:37:12.188Z,16.54
2023-02-12T08:39:38.945Z,16.31
2023-02-12T08:42:05.954Z,17.64
2023-02-12T08:44:32.908Z,16.34
2023-02-12T08:46:59.552Z,17.38
2023-02-12T08:49:28.750Z,17.00
2023-02-12T08:51:57.830Z,14.88
2023-02-12T08:54:28.083Z,16.57
2023-02-12T08:57:00.855Z,14.35
2023-02-12T08:59:27.948Z,14.07
2023-02-12T09:01:55.469Z,13.68
2023-02-12T09:04:27.529Z,16.38
2023-02-12T09:06:55.800Z,15.64
2023-02-12T09:09:23.276Z,14.40
2023-02-12T09:11:51.373Z,13.40
2023-02-12T09:14:24.650Z,15.47
2023-02-12T09:16:57.336Z,12.51
2023-02-12T09:19:25.560Z,14.83
2023-02-12T09:21:56.764Z,14.08
2023-02-12T09:24:25.654Z,16.70
2023-02-12T09:26:52.597Z,14.92
2023-02-12T09:29:19.434Z,15.01
2023-02-12T09:31:46.396Z,18.02
2023-02-12T09:34:13.504Z,13.74
2023-02-12T09:36:40.564Z,13.72
2023-02-12T09:39:07.688Z,13.46
2023-02-12T09:42:15.764Z,14.61
2023-02-12T09:45:00.605Z,17.18
2023-02-12T09:47:40.166Z,17.73
2023-02-12T09:50:44.126Z,18.38
2023-02-12T09:53:15.104Z,16.85
2023-02-12T09:55:41.942Z,15.78
2023-02-12T09:58:18.853Z,15.83
2023-02-12T10:00:45.605Z,15.15
2023-02-12T10:03:16.808Z,16.07
2023-02-12T10:05:58.380Z,17.78
2023-02-12T10:08:43.670Z,18.82
2023-02-12T10:11:35.385Z,19.35
2023-02-12T10:14:07.926Z,18.87
2023-02-12T10:16:38.546Z,18.39
2023-02-12T10:19:18.070Z,20.68
2023-02-12T10:21:50.825Z,18.88
2023-02-12T10:24:38.755Z,18.88
2023-02-12T10:27:13.457Z,18.98
2023-02-12T10:29:43.744Z,18.26
2023-02-12T10:32:27.869Z,19.25
2023-02-12T10:34:56.892Z,21.32
2023-02-12T10:37:40.991Z,19.68
2023-02-12T10:40:17.538Z,20.93
2023-02-12T10:42:52.892Z,19.88
2023-02-12T10:45:25.245Z,19.20
2023-02-12T10:48:01.996Z,20.75
2023-02-12T10:50:44.883Z,20.08
2023-02-12T10:53:20.741Z,18.88
2023-02-12T10:55:47.938Z,18.55
2023-02-12T10:58:21.423Z,20.56
2023-02-12T11:00:57.634Z,19.15
2023-02-12T11:03:29.832Z,17.84
2023-02-12T11:05:57.044Z,20.49
2023-02-12T11:08:35.780Z,18.90
2023-02-12T11:11:09.012Z,18.95
2023-02-12T11:13:37.275Z,18.92
2023-02-12T11:16:04.557Z,19.79
2023-02-12T11:18:33.451Z,21.85
2023-02-12T11:21:03.758Z,20.01
2023-02-12T11:23:33.276Z,20.40
2023-02-12T11:26:03.746Z,21.79
2023-02-12T11:28:33.438Z,18.01
2023-02-12T11:31:03.483Z,20.10
2023-02-12T11:33:35.792Z,19.56
2023-02-12T11:36:05.606Z,18.21
2023-02-12T11:38:37.651Z,20.08
2023-02-12T11:41:22.963Z,19.57
2023-02-12T11:43:51.961Z,20.53
2023-02-12T11:46:21.951Z,19.58
2023-02-12T11:48:51.301Z,19.60
2023-02-12T11:51:29.433Z,22.58
2023-02-12T11:54:00.050Z,18.91
2023-02-12T11:56:42.647Z,21.59
2023-02-12T11:59:31.217Z,21.23
2023-02-12T12:02:04.328Z,17.04
2023-02-12T12:04:34.327Z,20.28
2023-02-12T12:07:11.712Z,20.06
2023-02-12T12:09:55.790Z,18.92
2023-02-12T12:12:22.763Z,19.56
2023-02-12T12:15:13.692Z,18.13
2023-02-12T12:18:31.497Z,18.44
2023-02-12T12:21:13.954Z,17.83
2023-02-12T12:23:47.550Z,23.50
2023-02-12T12:26:34.749Z,19.97
2023-02-12T12:29:11.076Z,19.04
2023-02-12T12:31:42.378Z,21.83
2023-02-12T12:34:13.692Z,18.96
2023-02-12T12:36:55.882Z,17.86
2023-02-12T12:39:44.104Z,18.79
2023-02-12T12:42:29.308Z,19.38
2023-02-12T12:45:27.528Z,21.43
2023-02-12T12:48:10.336Z,19.90
2023-02-12T12:51:28.340Z,18.59
2023-02-12T12:54:01.546Z,20.12
2023-02-12T12:56:56.487Z,20.29
2023-02-12T12:59:29.478Z,18.06
2023-02-12T13:01:59.247Z,18.72
2023-02-12T13:04:45.243Z,20.13
2023-02-12T13:07:46.522Z,19.10
2023-02-12T13:10:26.201Z,21.13
2023-02-12T13:13:06.697Z,19.11
2023-02-12T13:15:44.551Z,22.61
2023-02-12T13:19:01.991Z,22.08
2023-02-12T13:21:49.160Z,23.96
2023-02-12T13:24:53.496Z,22.87
2023-02-12T13:27:26.196Z,21.69
2023-02-12T13:29:59.933Z,21.55
2023-02-12T13:32:34.791Z,20.06
2023-02-12T13:35:05.304Z,21.95
2023-02-12T13:37:45.174Z,22.59
2023-02-12T13:40:27.575Z,22.38
2023-02-12T13:43:19.382Z,21.28
2023-02-12T13:46:01.393Z,21.21
2023-02-12T13:48:46.397Z,21.26
2023-02-12T13:51:29.862Z,20.57
2023-02-12T13:54:50.967Z,19.98
2023-02-12T13:57:19.822Z,20.98
2023-02-12T13:59:49.356Z,20.77
2023-02-12T14:02:34.766Z,22.79
2023-02-12T14:05:25.351Z,23.04
2023-02-12T14:07:59.798Z,20.56
2023-02-12T14:10:31.281Z,20.17
2023-02-12T14:13:16.413Z,19.58
2023-02-12T14:15:47.312Z,18.54
2023-02-12T14:18:29.241Z,19.53
2023-02-12T14:21:16.607Z,18.94
2023-02-12T14:23:46.151Z,19.67
2023-02-12T14:26:19.598Z,20.68
2023-02-12T14:29:06.808Z,22.37
2023-02-12T14:31:39.343Z,21.92
2023-02-12T14:34:06.337Z,23.68
2023-02-12T14:36:33.012Z,20.62
2023-02-12T14:39:30.175Z,23.96
2023-02-12T14:42:16.800Z,21.92
2023-02-12T14:44:58.251Z,21.51
2023-02-12T14:47:30.887Z,21.14
2023-02-12T14:50:06.996Z,21.84
2023-02-12T14:52:39.855Z,21.01
2023-02-12T14:55:20.471Z,24.27
2023-02-12T14:57:47.830Z,23.38
2023-02-12T15:00:17.576Z,24.75
2023-02-12T15:02:50.494Z,21.32
2023-02-12T15:05:26.166Z,23.95
2023-02-12T15:08:17.039Z,22.69
2023-02-12T15:10:51.293Z,23.94
2023-02-12T15:13:48.667Z,23.81
2023-02-12T15:16:27.643Z,23.88
2023-02-12T15:19:05.353Z,25.34
2023-02-12T15:21:33.737Z,22.54
2023-02-12T15:24:12.562Z,21.61
2023-02-12T15:26:44.919Z,22.44
2023-02-12T15:29:24.519Z,24.82
2023-02-12T15:31:55.082Z,21.74
2023-02-12T15:34:25.019Z,22.40
2023-02-12T15:36:52.384Z,24.66
2023-02-12T15:39:22.498Z,21.55
2023-02-12T15:41:49.728Z,22.20
2023-02-12T15:44:35.126Z,21.98
2023-02-12T15:47:16.344Z,24.73
2023-02-12T15:49:44.061Z,21.70
2023-02-12T15:52:28.151Z,23.55
2023-02-12T15:54:55.185Z,22.74
2023-02-12T15:57:24.001Z,23.94
2023-02-12T15:59:53.848Z,22.89
2023-02-12T16:02:25.665Z,24.01
2023-02-12T16:04:53.211Z,23.24
2023-02-12T16:07:20.848Z,22.81
2023-02-12T16:09:50.943Z,24.14
2023-02-12T16:12:21.949Z,24.56
2023-02-12T16:14:56.408Z,25.39
2023-02-12T16:17:26.545Z,23.24
2023-02-12T16:20:00.142Z,23.28
2023-02-12T16:22:44.643Z,22.18
2023-02-12T16:25:29.163Z,21.72
2023-02-12T16:28:01.446Z,23.62
2023-02-12T16:30:30.336Z,22.46
2023-02-12T16:32:58.987Z,24.67
2023-02-12T16:35:29.664Z,24.62
2023-02-12T16:38:33.500Z,24.49
2023-02-12T16:41:18.480Z,24.34
2023-02-12T16:44:01.542Z,22.63
2023-02-12T16:46:34.411Z,23.22
2023-02-12T16:49:02.492Z,25.95
2023-02-12T16:51:35.477Z,25.05
2023-02-12T16:54:04.457Z,24.97
2023-02-12T16:56:38.805Z,23.12
2023-02-12T16:59:05.823Z,22.83
2023-02-12T17:01:35.686Z,23.69
2023-02-12T17:04:07.620Z,22.22
2023-02-12T17:06:34.395Z,22.94
2023-02-12T17:09:01.232Z,24.67
2023-02-12T17:11:29.334Z,23.33
2023-02-12T17:13:57.228Z,22.87
2023-02-12T17:16:30.745Z,24.22
2023-02-12T17:18:59.167Z,22.91
2023-02-12T17:21:32.576Z,23.14
2023-02-12T17:24:00.055Z,24.74
2023-02-12T17:26:27.678Z,23.21
2023-02-12T17:28:54.632Z,26.18
2023-02-12T17:31:21.826Z,25.01
2023-02-12T17:33:48.649Z,27.04
2023-02-12T17:36:15.399Z,25.86
2023-02-12T17:38:42.547Z,26.43
2023-02-12T17:41:11.244Z,28.76
2023-02-12T17:43:38.296Z,27.27
2023-02-12T17:46:13.029Z,28.82
2023-02-12T17:48:40.806Z,25.37
2023-02-12T17:51:09.910Z,23.63
2023-02-12T17:53:36.859Z,25.59
2023-02-12T17:56:03.925Z,25.85
2023-02-12T17:58:31.250Z,23.32
2023-02-12T18:01:04.809Z,25.94
2023-02-12T18:03:31.547Z,24.31
2023-02-12T18:05:58.353Z,28.39
2023-02-12T18:08:25.229Z,27.56
2023-02-12T18:10:52.212Z,26.89
2023-02-12T18:13:19.197Z,25.61
2023-02-12T18:15:46.137Z,31.51
2023-02-12T18:18:13.326Z,28.04
2023-02-12T18:20:40.917Z,27.13
2023-02-12T18:23:08.558Z,30.26
2023-02-12T18:25:40.012Z,28.62
2023-02-12T18:28:06.816Z,27.43
2023-02-12T18:30:33.906Z,33.87
2023-02-12T18:33:00.892Z,32.16
2023-02-12T18:35:28.045Z,33.87
2023-02-12T18:37:54.736Z,31.14
2023-02-12T18:40:21.523Z,32.83
2023-02-12T18:42:48.341Z,27.94
2023-02-12T18:45:15.605Z,31.89
2023-02-12T18:47:42.517Z,32.05
2023-02-12T18:50:09.606Z,29.38
2023-02-12T18:52:37.652Z,31.69
2023-02-12T18:55:06.845Z,28.81
2023-02-12T18:57:33.773Z,34.03
2023-02-12T19:00:01.238Z,30.93
2023-02-12T19:02:28.551Z,29.24
2023-02-12T19:04:55.469Z,27.60
2023-02-12T19:07:22.231Z,29.53
2023-02-12T19:09:49.304Z,29.11
2023-02-12T19:12:16.453Z,32.68
2023-02-12T19:14:43.709Z,32.22
2023-02-12T19:17:10.479Z,29.29
2023-02-12T19:19:37.240Z,32.32
2023-02-12T19:22:04.376Z,29.18
2023-02-12T19:24:44.685Z,26.91
2023-02-12T19:27:12.807Z,31.05
2023-02-12T19:29:39.555Z,31.14
2023-02-12T19:32:06.491Z,28.65
2023-02-12T19:34:33.563Z,27.83
2023-02-12T19:37:00.426Z,28.19
2023-02-12T19:39:27.595Z,29.09
2023-02-12T19:41:56.206Z,32.13
2023-02-12T19:44:25.229Z,29.58
2023-02-12T19:46:53.220Z,31.52
2023-02-12T19:49:23.409Z,31.96
2023-02-12T19:51:51.113Z,30.26
2023-02-12T19:54:19.628Z,31.81
2023-02-12T19:56:47.423Z,28.32
2023-02-12T19:59:17.457Z,25.31
2023-02-12T20:01:44.964Z,29.68
2023-02-12T20:04:14.180Z,27.86
2023-02-12T20:06:42.136Z,28.82
2023-02-12T20:09:10.803Z,30.16
2023-02-12T20:11:39.384Z,29.74
2023-02-12T20:14:09.435Z,33.04
2023-02-12T20:16:39.401Z,32.63
2023-02-12T20:19:12.311Z,30.00
2023-02-12T20:21:39.818Z,28.09
2023-02-12T20:24:06.998Z,31.99
2023-02-12T20:26:34.819Z,29.76
2023-02-12T20:29:04.923Z,28.57
2023-02-12T20:31:36.049Z,28.62
2023-02-12T20:34:08.823Z,33.19
2023-02-12T20:36:37.904Z,28.83
2023-02-12T20:39:07.066Z,31.12
2023-02-12T20:41:37.249Z,27.51
2023-02-12T20:44:06.417Z,28.57
2023-02-12T20:46:36.186Z,32.04
2023-02-12T20:49:03.579Z,30.69
2023-02-12T20:51:31.246Z,30.76
2023-02-12T20:54:01.077Z,29.90
2023-02-12T20:56:30.615Z,30.92
2023-02-12T20:58:58.655Z,32.24
2023-02-12T21:01:29.061Z,31.22
2023-02-12T21:03:55.940Z,33.91
2023-02-12T21:06:24.440Z,31.45
2023-02-12T21:08:51.414Z,32.30
2023-02-12T21:11:24.243Z,29.61
2023-02-12T21:14:02.643Z,27.19
2023-02-12T21:16:37.777Z,28.14
2023-02-12T21:19:04.852Z,27.08
2023-02-12T21:21:34.588Z,27.72
2023-02-12T21:24:04.913Z,26.18
2023-02-12T21:26:33.548Z,29.93
2023-02-12T21:29:01.960Z,34.12
2023-02-12T21:31:32.384Z,32.19
2023-02-12T21:34:01.440Z,30.51
2023-02-12T21:36:31.690Z,30.75
2023-02-12T21:38:59.515Z,28.64
2023-02-12T21:41:31.475Z,32.87
2023-02-12T21:44:01.321Z,31.12
2023-02-12T21:46:29.725Z,28.19
2023-02-12T21:48:58.809Z,30.10
2023-02-12T21:51:32.559Z,29.33
2023-02-12T21:54:01.601Z,31.74
2023-02-12T21:56:29.055Z,28.05
2023-02-12T21:58:57.748Z,29.88
2023-02-12T22:01:27.894Z,26.71
2023-02-12T22:03:55.599Z,29.44
2023-02-12T22:06:24.945Z,27.51
2023-02-12T22:08:56.218Z,28.57
2023-02-12T22:11:23.487Z,27.31
2023-02-12T22:13:50.558Z,27.00
2023-02-12T22:16:23.916Z,30.97
2023-02-12T22:18:59.267Z,27.77
2023-02-12T22:21:31.100Z,27.58
2023-02-12T22:24:01.867Z,26.33
2023-02-12T22:26:30.364Z,29.27
2023-02-12T22:29:00.141Z,27.40
2023-02-12T22:31:32.924Z,30.88
2023-02-12T22:34:02.929Z,29.34
2023-02-12T22:36:30.394Z,26.07
2023-02-12T22:38:59.385Z,26.31
2023-02-12T22:41:27.116Z,29.98
2023-02-12T22:43:54.505Z,27.78
2023-02-12T22:46:21.556Z,28.30
2023-02-12T22:48:48.369Z,29.22
2023-02-12T22:51:20.568Z,28.07
2023-02-12T22:53:48.053Z,29.68
2023-02-12T22:56:15.994Z,30.43
2023-02-12T22:58:42.835Z,31.25
2023-02-12T23:01:19.322Z,32.44
2023-02-12T23:03:46.208Z,32.57
2023-02-12T23:06:19.641Z,32.58
2023-02-12T23:08:50.830Z,29.33
2023-02-12T23:11:19.036Z,31.45
2023-02-12T23:13:46.301Z,32.72
2023-02-12T23:16:13.277Z,29.35
2023-02-12T23:18:40.319Z,27.88
2023-02-12T23:21:07.099Z,30.91
2023-02-12T23:23:33.933Z,32.97
2023-02-12T23:26:01.403Z,33.12
2023-02-12T23:28:28.249Z,29.45
2023-02-12T23:30:55.148Z,33.46
2023-02-12T23:33:22.153Z,29.36
2023-02-12T23:35:49.723Z,32.01
2023-02-12T23:38:17.653Z,30.00
2023-02-12T23:40:44.855Z,28.34
2023-02-12T23:43:11.879Z,26.99
2023-02-12T23:45:38.793Z,27.87
2023-02-12T23:48:05.794Z,30.88
2023-02-12T23:50:32.784Z,34.17
2023-02-12T23:52:59.991Z,37.15
2023-02-12T23:55:26.959Z,26.77
2023-02-12T23:57:53.771Z,29.30
